Time;durP1;ratioP1;P1;durP2;ratioP2;P2;SDS_P1;SDS_P2;PMS_P1;PMS_P2;Temp;Humidity;BMP_temperature;BMP_pressure;BME280_temperature;BME280_humidity;BME280_pressure;Samples;Min_cycle;Max_cycle;Signal;HPM_P1;HPM_P2
2021/04/13 00:00:24;;;;;;;;;;;21.00;45.60;;;;;;5056591;28;19905;-75
2021/04/13 00:02:51;;;;;;;;;;;21.00;45.90;;;;;;5056766;28;19978;-75
2021/04/13 00:05:17;;;;;;;;;;;21.00;45.70;;;;;;5056727;28;19935;-75
2021/04/13 00:07:44;;;;;;;;;;;20.90;45.80;;;;;;5056727;28;19998;-76
2021/04/13 00:10:14;;;;;;;;;;;20.80;45.90;;;;;;5038988;28;20433;-75
2021/04/13 00:12:41;;;;;;;;;;;20.80;46.40;;;;;;5056414;28;20232;-76
2021/04/13 00:15:09;;;;;;;;;;;20.80;46.40;;;;;;5056414;28;19915;-76
2021/04/13 00:17:35;;;;;;;;;;;20.90;46.30;;;;;;5037219;28;20015;-75
2021/04/13 00:20:01;;;;;;;;;;;20.80;46.50;;;;;;5036507;28;19909;-76
2021/04/13 00:22:29;;;;;;;;;;;20.90;46.60;;;;;;5036306;28;19996;-75
2021/04/13 00:24:55;;;;;;;;;;;20.80;46.70;;;;;;5036446;28;20331;-76
2021/04/13 00:27:23;;;;;;;;;;;20.90;46.40;;;;;;5036428;28;19909;-76
2021/04/13 00:29:49;;;;;;;;;;;20.80;46.50;;;;;;5036270;28;19905;-77
2021/04/13 00:32:20;;;;;;;;;;;20.90;46.30;;;;;;5036343;28;19923;-76
2021/04/13 00:35:13;;;;;;;;;;;20.80;46.50;;;;;;5036961;28;19912;-76
2021/04/13 00:37:39;;;;;;;;;;;20.90;46.50;;;;;;5046112;28;20228;-77
2021/04/13 00:40:17;;;;;;;;;;;20.80;46.10;;;;;;5047479;28;20350;-77
2021/04/13 00:42:44;;;;;;;;;;;20.90;46.00;;;;;;5046929;28;19916;-76
2021/04/13 00:45:21;;;;;;;;;;;20.80;46.40;;;;;;5045528;28;19943;-75
2021/04/13 00:47:48;;;;;;;;;;;20.90;46.00;;;;;;5052669;28;19909;-76
2021/04/13 00:50:23;;;;;;;;;;;20.90;45.70;;;;;;5044533;28;20000;-76
2021/04/13 00:52:51;;;;;;;;;;;20.70;46.50;;;;;;5055717;28;19911;-75
2021/04/13 00:55:19;;;;;;;;;;;20.80;45.70;;;;;;5055647;28;19947;-76
2021/04/13 00:57:46;;;;;;;;;;;20.90;45.50;;;;;;5052154;28;19908;-76
2021/04/13 01:00:18;;;;;;;;;;;20.90;45.40;;;;;;5055334;28;19947;-75
2021/04/13 01:02:44;;;;;;;;;;;20.90;45.40;;;;;;5054013;28;20235;-75
2021/04/13 01:05:20;;;;;;;;;;;20.90;45.00;;;;;;5044968;28;19924;-76
2021/04/13 01:07:47;;;;;;;;;;;21.00;45.20;;;;;;5039010;28;20370;-75
2021/04/13 01:10:32;;;;;;;;;;;20.80;45.40;;;;;;5055460;28;20014;-75
2021/04/13 01:13:12;;;;;;;;;;;20.50;46.50;;;;;;5055499;28;19909;-75
2021/04/13 01:15:39;;;;;;;;;;;20.70;46.30;;;;;;5051771;28;19912;-75
2021/04/13 01:18:10;;;;;;;;;;;20.80;45.80;;;;;;5035393;28;20246;-75
2021/04/13 01:20:55;;;;;;;;;;;20.80;45.60;;;;;;5038845;28;19939;-77
2021/04/13 01:23:32;;;;;;;;;;;20.70;45.80;;;;;;5041231;28;19908;-76
2021/04/13 01:26:00;;;;;;;;;;;20.70;45.90;;;;;;5036905;28;20398;-76
2021/04/13 01:28:28;;;;;;;;;;;20.60;46.00;;;;;;5041935;28;20259;-76
2021/04/13 01:30:57;;;;;;;;;;;20.80;45.10;;;;;;5051483;28;19944;-76
2021/04/13 01:33:38;;;;;;;;;;;20.70;45.20;;;;;;5049032;28;19916;-76
2021/04/13 01:36:15;;;;;;;;;;;20.80;44.70;;;;;;5042789;28;19921;-76
2021/04/13 01:38:56;;;;;;;;;;;20.80;44.60;;;;;;5033931;28;20343;-75
2021/04/13 01:41:30;;;;;;;;;;;20.80;44.30;;;;;;5045217;28;20012;-75
2021/04/13 01:43:56;;;;;;;;;;;20.80;44.30;;;;;;5050175;28;20016;-76
2021/04/13 01:46:23;;;;;;;;;;;20.70;44.10;;;;;;5054264;28;19970;-76
2021/04/13 01:48:49;;;;;;;;;;;20.60;44.50;;;;;;5026685;28;19909;-76
2021/04/13 01:51:15;;;;;;;;;;;20.50;44.40;;;;;;5047988;28;19913;-76
2021/04/13 01:53:44;;;;;;;;;;;20.40;44.70;;;;;;5049714;28;19909;-76
2021/04/13 01:56:19;;;;;;;;;;;20.40;44.60;;;;;;5036802;28;19909;-76
2021/04/13 01:58:46;;;;;;;;;;;20.30;44.90;;;;;;5028830;28;19912;-76
2021/04/13 02:01:20;;;;;;;;;;;20.30;44.20;;;;;;5051646;28;19920;-75
2021/04/13 02:03:47;;;;;;;;;;;20.40;43.80;;;;;;5051917;28;20234;-76
2021/04/13 02:06:34;;;;;;;;;;;20.40;43.70;;;;;;5044927;28;19948;-76
2021/04/13 02:09:59;;;;;;;;;;;20.10;44.30;;;;;;5031735;28;19915;-75
2021/04/13 02:12:26;;;;;;;;;;;20.10;44.30;;;;;;5045739;28;19952;-76
2021/04/13 02:14:54;;;;;;;;;;;19.90;44.60;;;;;;5050005;28;19909;-75
2021/04/13 02:17:40;;;;;;;;;;;19.70;45.20;;;;;;5028901;28;19909;-75
2021/04/13 02:20:07;;;;;;;;;;;19.50;45.60;;;;;;5028949;28;19920;-76
2021/04/13 02:22:34;;;;;;;;;;;19.10;46.50;;;;;;5044697;28;20000;-76
2021/04/13 02:25:02;;;;;;;;;;;19.00;46.40;;;;;;5046030;28;19931;-76
2021/04/13 02:27:30;;;;;;;;;;;18.80;47.60;;;;;;5044495;28;19908;-76
2021/04/13 02:30:22;;;;;;;;;;;18.40;46.70;;;;;;5023187;28;20000;-75
2021/04/13 02:32:49;;;;;;;;;;;18.20;47.40;;;;;;5021882;28;19916;-77
2021/04/13 02:35:18;;;;;;;;;;;18.10;46.90;;;;;;5047742;28;19908;-77
2021/04/13 02:37:54;;;;;;;;;;;18.00;47.80;;;;;;5050111;28;19981;-76
2021/04/13 02:40:26;;;;;;;;;;;18.00;47.80;;;;;;5044399;28;19909;-76
2021/04/13 02:42:54;;;;;;;;;;;17.70;47.40;;;;;;5049724;28;19935;-76
2021/04/13 02:45:35;;;;;;;;;;;17.80;47.90;;;;;;5046929;28;20247;-76
2021/04/13 02:48:04;;;;;;;;;;;17.80;49.10;;;;;;5038309;28;19909;-75
2021/04/13 02:50:31;;;;;;;;;;;17.70;48.90;;;;;;5045022;28;19920;-76
2021/04/13 02:53:00;;;;;;;;;;;17.50;48.50;;;;;;5054223;28;19924;-76
2021/04/13 02:55:27;;;;;;;;;;;17.60;48.80;;;;;;5053397;28;20258;-76
2021/04/13 02:57:55;;;;;;;;;;;17.30;48.40;;;;;;5046844;28;19909;-76
2021/04/13 03:00:23;;;;;;;;;;;17.20;48.80;;;;;;5046670;28;19958;-76
2021/04/13 03:02:55;;;;;;;;;;;16.90;49.50;;;;;;5047443;28;20254;-76
2021/04/13 03:05:23;;;;;;;;;;;16.90;49.30;;;;;;5037706;28;19909;-76
2021/04/13 03:07:50;;;;;;;;;;;16.80;48.90;;;;;;5055584;28;19904;-76
2021/04/13 03:10:19;;;;;;;;;;;16.70;49.10;;;;;;5055326;28;19909;-76
2021/04/13 03:12:53;;;;;;;;;;;16.80;49.10;;;;;;5053989;28;19909;-76
2021/04/13 03:15:30;;;;;;;;;;;16.70;49.40;;;;;;5055147;28;19995;-76
2021/04/13 03:18:01;;;;;;;;;;;16.60;49.30;;;;;;5046538;28;19948;-75
2021/04/13 03:20:32;;;;;;;;;;;16.60;49.30;;;;;;5049849;28;20333;-76
2021/04/13 03:22:58;;;;;;;;;;;16.40;50.80;;;;;;5029162;28;19920;-76
2021/04/13 03:25:29;;;;;;;;;;;16.30;49.80;;;;;;5042289;28;19913;-76
2021/04/13 03:27:55;;;;;;;;;;;16.20;50.20;;;;;;5051244;28;19917;-75
2021/04/13 03:30:26;;;;;;;;;;;16.30;49.60;;;;;;5051803;28;19963;-76
2021/04/13 03:33:00;;;;;;;;;;;16.40;49.70;;;;;;5053595;28;19999;-76
2021/04/13 03:35:28;;;;;;;;;;;16.20;50.40;;;;;;5058591;28;20249;-75
2021/04/13 03:37:56;;;;;;;;;;;16.10;51.60;;;;;;5038911;28;19959;-76
2021/04/13 03:40:24;;;;;;;;;;;16.20;50.30;;;;;;5049202;28;19970;-75
2021/04/13 03:42:54;;;;;;;;;;;16.20;51.40;;;;;;5042403;28;19956;-74
2021/04/13 03:45:21;;;;;;;;;;;16.10;51.80;;;;;;5053631;28;19909;-76
2021/04/13 03:47:47;;;;;;;;;;;16.10;51.00;;;;;;5054818;28;19959;-75
2021/04/13 03:50:18;;;;;;;;;;;16.10;51.40;;;;;;5037640;28;19966;-76
2021/04/13 03:52:44;;;;;;;;;;;16.00;52.10;;;;;;5039703;28;19913;-76
2021/04/13 03:55:18;;;;;;;;;;;15.90;51.60;;;;;;5041543;28;20240;-75
2021/04/13 03:57:44;;;;;;;;;;;15.80;52.60;;;;;;5039957;28;19908;-76
2021/04/13 04:00:13;;;;;;;;;;;16.00;54.00;;;;;;5053743;28;20000;-76
2021/04/13 04:02:39;;;;;;;;;;;15.90;54.30;;;;;;5057823;28;20319;-76
2021/04/13 04:05:13;;;;;;;;;;;15.80;54.50;;;;;;5054347;28;19923;-77
2021/04/13 04:07:45;;;;;;;;;;;15.70;54.40;;;;;;5051586;28;19958;-75
2021/04/13 04:10:29;;;;;;;;;;;15.40;54.00;;;;;;5056500;28;19936;-77
2021/04/13 04:13:00;;;;;;;;;;;15.40;55.10;;;;;;5057599;28;19991;-76
2021/04/13 04:15:28;;;;;;;;;;;15.40;55.80;;;;;;5055783;28;19951;-75
2021/04/13 04:17:54;;;;;;;;;;;15.30;55.70;;;;;;5037344;28;20003;-76
2021/04/13 04:20:30;;;;;;;;;;;15.20;55.50;;;;;;5055704;28;19908;-75
2021/04/13 04:22:56;;;;;;;;;;;15.10;55.20;;;;;;5030095;28;19912;-75
2021/04/13 04:25:34;;;;;;;;;;;14.80;55.10;;;;;;5052855;28;19966;-76
2021/04/13 04:28:02;;;;;;;;;;;14.60;56.70;;;;;;5054510;28;19908;-76
2021/04/13 04:30:32;;;;;;;;;;;14.50;55.80;;;;;;5048969;28;19944;-77
2021/04/13 04:32:59;;;;;;;;;;;14.50;54.80;;;;;;5024196;28;19999;-75
2021/04/13 04:35:36;;;;;;;;;;;14.50;54.50;;;;;;5050494;28;20470;-75
2021/04/13 04:38:08;;;;;;;;;;;14.60;56.10;;;;;;5061259;28;20341;-75
2021/04/13 04:40:39;;;;;;;;;;;14.90;55.30;;;;;;5047204;28;20258;-74
2021/04/13 04:43:13;;;;;;;;;;;15.00;56.00;;;;;;5051698;28;19913;-75
2021/04/13 04:45:42;;;;;;;;;;;15.00;55.70;;;;;;5048447;28;19909;-75
2021/04/13 04:48:18;;;;;;;;;;;14.90;55.50;;;;;;5054601;28;19909;-75
2021/04/13 04:50:46;;;;;;;;;;;14.60;55.30;;;;;;5056916;28;19912;-75
2021/04/13 04:53:15;;;;;;;;;;;14.50;55.00;;;;;;5051649;28;19995;-75
2021/04/13 04:55:41;;;;;;;;;;;14.60;56.20;;;;;;5038817;28;20062;-75
2021/04/13 04:58:07;;;;;;;;;;;14.40;56.40;;;;;;5056875;28;20350;-75
2021/04/13 05:00:33;;;;;;;;;;;14.50;57.30;;;;;;5038712;28;19908;-75
2021/04/13 05:02:59;;;;;;;;;;;14.70;59.10;;;;;;5045663;28;19913;-75
2021/04/13 05:05:25;;;;;;;;;;;14.60;58.40;;;;;;5049868;28;20003;-76
2021/04/13 05:07:51;;;;;;;;;;;14.60;59.20;;;;;;5036403;28;19909;-76
2021/04/13 05:10:18;;;;;;;;;;;14.70;60.30;;;;;;5055499;28;20338;-76
2021/04/13 05:12:44;;;;;;;;;;;14.60;59.20;;;;;;5031802;28;19932;-76
2021/04/13 05:15:11;;;;;;;;;;;14.50;60.70;;;;;;5049707;28;20359;-76
2021/04/13 05:17:37;;;;;;;;;;;14.40;60.20;;;;;;5053036;28;19915;-75
2021/04/13 05:20:03;;;;;;;;;;;14.10;58.60;;;;;;5053611;28;20399;-75
2021/04/13 05:22:29;;;;;;;;;;;14.30;62.10;;;;;;5043682;28;22688;-76
2021/04/13 05:24:55;;;;;;;;;;;14.20;60.90;;;;;;5038333;28;19904;-75
2021/04/13 05:27:21;;;;;;;;;;;14.20;62.30;;;;;;5057551;28;20046;-75
2021/04/13 05:29:47;;;;;;;;;;;14.10;61.00;;;;;;5044591;28;19920;-75
2021/04/13 05:32:13;;;;;;;;;;;14.00;61.30;;;;;;5019359;28;19931;-75
2021/04/13 05:34:39;;;;;;;;;;;13.90;61.30;;;;;;5054663;28;19908;-75
2021/04/13 05:37:06;;;;;;;;;;;14.00;62.70;;;;;;5049618;28;19912;-75
2021/04/13 05:39:32;;;;;;;;;;;14.10;63.30;;;;;;5056252;28;20313;-76
2021/04/13 05:41:59;;;;;;;;;;;14.10;62.90;;;;;;5054796;28;20350;-75
2021/04/13 05:44:25;;;;;;;;;;;13.90;62.70;;;;;;5043508;28;19909;-75
2021/04/13 05:46:52;;;;;;;;;;;14.00;62.70;;;;;;5031734;28;19947;-76
2021/04/13 05:49:19;;;;;;;;;;;13.90;63.90;;;;;;5053326;28;19905;-75
2021/04/13 05:51:45;;;;;;;;;;;13.90;63.20;;;;;;5037610;28;19913;-75
2021/04/13 05:54:11;;;;;;;;;;;13.90;63.80;;;;;;5026423;28;19909;-75
2021/04/13 05:56:40;;;;;;;;;;;13.90;64.30;;;;;;5033188;28;20011;-75
2021/04/13 05:59:07;;;;;;;;;;;13.80;62.10;;;;;;5052801;28;19974;-75
2021/04/13 06:01:34;;;;;;;;;;;13.80;63.20;;;;;;5044141;28;19963;-75
2021/04/13 06:04:01;;;;;;;;;;;13.80;64.30;;;;;;5055253;28;19909;-75
2021/04/13 06:06:27;;;;;;;;;;;13.80;63.40;;;;;;5057535;28;19911;-75
2021/04/13 06:08:53;;;;;;;;;;;13.80;64.80;;;;;;5052898;28;19908;-75
2021/04/13 06:11:30;;;;;;;;;;;13.70;63.70;;;;;;5051320;28;19904;-74
2021/04/13 06:13:57;;;;;;;;;;;13.70;64.30;;;;;;5028579;28;19909;-75
2021/04/13 06:16:26;;;;;;;;;;;13.50;64.30;;;;;;5053018;28;19905;-75
2021/04/13 06:18:52;;;;;;;;;;;13.50;64.10;;;;;;5050080;28;19920;-75
2021/04/13 06:21:18;;;;;;;;;;;13.60;65.50;;;;;;5043597;28;19913;-76
2021/04/13 06:23:44;;;;;;;;;;;13.60;65.40;;;;;;5019808;28;19920;-76
2021/04/13 06:26:11;;;;;;;;;;;13.50;64.10;;;;;;5045905;28;19952;-75
2021/04/13 06:28:37;;;;;;;;;;;13.60;66.00;;;;;;5048296;28;19917;-74
2021/04/13 06:31:04;;;;;;;;;;;13.60;65.30;;;;;;5029575;28;19924;-75
2021/04/13 06:33:31;;;;;;;;;;;13.40;65.30;;;;;;5046985;28;19909;-74
2021/04/13 06:36:02;;;;;;;;;;;13.60;65.60;;;;;;5044012;28;20397;-75
2021/04/13 06:38:28;;;;;;;;;;;13.60;67.30;;;;;;5024691;28;19917;-74
2021/04/13 06:41:10;;;;;;;;;;;13.50;66.80;;;;;;5039184;28;20019;-75
2021/04/13 06:43:54;;;;;;;;;;;13.40;66.60;;;;;;5056578;28;20323;-74
2021/04/13 06:46:20;;;;;;;;;;;13.50;66.60;;;;;;5052789;28;20330;-74
2021/04/13 06:49:04;;;;;;;;;;;13.50;66.20;;;;;;5038059;28;19963;-75
2021/04/13 06:52:03;;;;;;;;;;;13.50;67.10;;;;;;5045852;28;19909;-75
2021/04/13 06:54:42;;;;;;;;;;;13.50;67.00;;;;;;5010515;28;19915;-75
2021/04/13 06:57:11;;;;;;;;;;;13.40;67.60;;;;;;5057948;28;19992;-74
2021/04/13 06:59:49;;;;;;;;;;;13.30;66.40;;;;;;5020499;28;19909;-74
2021/04/13 07:02:26;;;;;;;;;;;13.20;66.20;;;;;;5054773;28;19923;-75
2021/04/13 07:04:52;;;;;;;;;;;13.30;67.90;;;;;;5052919;28;19916;-75
2021/04/13 07:07:23;;;;;;;;;;;13.40;67.20;;;;;;5057410;28;19908;-76
2021/04/13 07:10:07;;;;;;;;;;;13.30;67.70;;;;;;5057384;28;19909;-75
2021/04/13 07:12:39;;;;;;;;;;;13.40;67.30;;;;;;5042197;28;19979;-75
2021/04/13 07:15:05;;;;;;;;;;;13.30;68.40;;;;;;5022306;28;19913;-75
2021/04/13 07:17:57;;;;;;;;;;;13.30;67.30;;;;;;5052340;28;20019;-75
2021/04/13 07:20:34;;;;;;;;;;;13.30;67.70;;;;;;5024974;28;20013;-75
2021/04/13 07:23:03;;;;;;;;;;;13.10;68.50;;;;;;5055354;28;19912;-75
2021/04/13 07:25:42;;;;;;;;;;;13.10;68.10;;;;;;5057459;28;20314;-75
2021/04/13 07:28:10;;;;;;;;;;;13.10;68.70;;;;;;5050824;28;19919;-74
2021/04/13 07:30:43;;;;;;;;;;;13.10;68.70;;;;;;5033556;28;19916;-75
2021/04/13 07:33:13;;;;;;;;;;;13.00;68.00;;;;;;5051847;28;19909;-74
2021/04/13 07:35:39;;;;;;;;;;;13.00;68.10;;;;;;5051535;28;19919;-75
2021/04/13 07:38:26;;;;;;;;;;;12.90;68.00;;;;;;5055551;28;19910;-74
2021/04/13 07:41:01;;;;;;;;;;;13.00;68.50;;;;;;5053755;28;19998;-75
2021/04/13 07:43:30;;;;;;;;;;;12.90;68.00;;;;;;5050675;28;20005;-75
2021/04/13 07:46:12;;;;;;;;;;;12.90;69.30;;;;;;5043213;28;20039;-75
2021/04/13 07:48:50;;;;;;;;;;;13.00;68.80;;;;;;5055141;28;19908;-75
2021/04/13 07:51:26;;;;;;;;;;;13.00;68.10;;;;;;5055704;28;20444;-76
2021/04/13 07:53:54;;;;;;;;;;;12.90;67.50;;;;;;5043673;28;19920;-74
2021/04/13 07:56:23;;;;;;;;;;;13.00;68.10;;;;;;5039236;28;19990;-74
2021/04/13 07:58:58;;;;;;;;;;;13.00;68.60;;;;;;5041932;28;19909;-75
2021/04/13 08:01:24;;;;;;;;;;;13.00;69.00;;;;;;5053726;28;20426;-73
2021/04/13 08:03:51;;;;;;;;;;;12.90;69.30;;;;;;5052852;28;19908;-74
2021/04/13 08:06:26;;;;;;;;;;;12.90;70.50;;;;;;5054061;28;19909;-74
2021/04/13 08:09:10;;;;;;;;;;;12.80;70.10;;;;;;5054174;28;20224;-76
2021/04/13 08:11:36;;;;;;;;;;;12.80;70.30;;;;;;5054483;28;19970;-76
2021/04/13 08:14:17;;;;;;;;;;;12.80;70.10;;;;;;5049037;28;19917;-76
2021/04/13 08:16:44;;;;;;;;;;;12.70;69.70;;;;;;5038277;28;19935;-76
2021/04/13 08:19:13;;;;;;;;;;;12.80;70.40;;;;;;5056081;28;19916;-77
2021/04/13 08:21:39;;;;;;;;;;;12.80;70.60;;;;;;5053821;28;20320;-76
2021/04/13 08:24:07;;;;;;;;;;;12.90;70.00;;;;;;5054694;28;19912;-75
2021/04/13 08:26:40;;;;;;;;;;;12.80;70.60;;;;;;5032991;28;20042;-75
2021/04/13 08:29:09;;;;;;;;;;;12.90;70.30;;;;;;5035161;28;19920;-77
2021/04/13 08:34:44;;;;;;;;;;;12.70;71.30;;;;;;5041845;28;20016;-77
2021/04/13 08:37:27;;;;;;;;;;;12.80;70.20;;;;;;5053403;28;20324;-77
2021/04/13 08:40:07;;;;;;;;;;;12.80;70.50;;;;;;5048810;28;19905;-76
2021/04/13 08:42:38;;;;;;;;;;;12.80;70.60;;;;;;5047272;28;19912;-76
2021/04/13 08:45:08;;;;;;;;;;;12.70;70.40;;;;;;5052487;28;19975;-76
2021/04/13 08:47:44;;;;;;;;;;;12.80;70.40;;;;;;5048449;28;19913;-76
2021/04/13 08:50:29;;;;;;;;;;;12.70;70.40;;;;;;5052934;28;19963;-75
2021/04/13 08:53:02;;;;;;;;;;;12.70;70.80;;;;;;5047129;28;19919;-76
2021/04/13 08:55:48;;;;;;;;;;;12.70;70.60;;;;;;5054336;28;19966;-75
2021/04/13 08:58:14;;;;;;;;;;;12.60;70.50;;;;;;5053997;28;19920;-75
2021/04/13 09:00:45;;;;;;;;;;;12.70;70.60;;;;;;5051788;28;19909;-75
2021/04/13 09:03:13;;;;;;;;;;;12.70;70.60;;;;;;5047009;28;19909;-75
2021/04/13 09:05:40;;;;;;;;;;;12.60;70.30;;;;;;5044106;28;19908;-75
2021/04/13 09:08:28;;;;;;;;;;;12.60;70.10;;;;;;5047267;28;20357;-75
2021/04/13 09:11:12;;;;;;;;;;;12.70;69.60;;;;;;5054256;28;19915;-76
2021/04/13 09:13:39;;;;;;;;;;;12.70;69.50;;;;;;5052297;28;19931;-76
2021/04/13 09:16:05;;;;;;;;;;;12.60;69.90;;;;;;5053586;28;19919;-75
2021/04/13 09:18:47;;;;;;;;;;;12.60;69.30;;;;;;5054651;28;19905;-75
2021/04/13 09:21:28;;;;;;;;;;;12.70;69.10;;;;;;5041524;28;20289;-75
2021/04/13 09:24:09;;;;;;;;;;;12.50;68.60;;;;;;5054438;28;20320;-75
2021/04/13 09:26:41;;;;;;;;;;;12.70;68.50;;;;;;5054399;28;19908;-75
2021/04/13 09:29:10;;;;;;;;;;;12.60;68.70;;;;;;5035527;28;19913;-75
2021/04/13 09:31:46;;;;;;;;;;;12.50;68.00;;;;;;5052266;28;20003;-75
2021/04/13 09:34:32;;;;;;;;;;;12.30;68.60;;;;;;5048845;28;19955;-75
2021/04/13 09:36:58;;;;;;;;;;;12.50;68.60;;;;;;5013748;28;19916;-75
2021/04/13 09:39:31;;;;;;;;;;;12.40;67.90;;;;;;5054632;28;19913;-75
2021/04/13 09:42:26;;;;;;;;;;;12.50;67.70;;;;;;5034792;28;19923;-76
2021/04/13 09:45:13;;;;;;;;;;;12.60;67.50;;;;;;5038120;28;20540;-76
2021/04/13 09:47:48;;;;;;;;;;;12.40;67.10;;;;;;5024111;28;19959;-75
2021/04/13 09:50:29;;;;;;;;;;;12.50;66.80;;;;;;5054524;28;20369;-75
2021/04/13 09:53:25;;;;;;;;;;;12.40;67.00;;;;;;5048985;28;19978;-75
2021/04/13 09:55:51;;;;;;;;;;;12.20;67.20;;;;;;5031296;28;19909;-75
2021/04/13 09:58:26;;;;;;;;;;;12.40;66.80;;;;;;5047788;28;19923;-75
2021/04/13 10:01:11;;;;;;;;;;;12.30;67.10;;;;;;5021549;28;19913;-75
2021/04/13 10:03:57;;;;;;;;;;;12.40;67.40;;;;;;5042008;28;19919;-76
2021/04/13 10:06:28;;;;;;;;;;;12.60;67.20;;;;;;5020956;28;19909;-75
2021/04/13 10:09:01;;;;;;;;;;;12.60;66.00;;;;;;5044145;28;19947;-76
2021/04/13 10:11:30;;;;;;;;;;;12.50;66.60;;;;;;5058986;28;20007;-76
2021/04/13 10:13:59;;;;;;;;;;;12.50;66.10;;;;;;5048233;28;19970;-77
2021/04/13 10:16:38;;;;;;;;;;;12.50;66.90;;;;;;5049930;28;19912;-79
2021/04/13 10:19:23;;;;;;;;;;;12.50;66.60;;;;;;5056369;28;20323;-75
2021/04/13 10:22:08;;;;;;;;;;;12.50;66.20;;;;;;5056316;28;19916;-75
2021/04/13 10:24:43;;;;;;;;;;;12.70;65.80;;;;;;5055998;28;19924;-75
2021/04/13 10:27:21;;;;;;;;;;;12.40;66.20;;;;;;5057026;28;19909;-75
2021/04/13 10:30:02;;;;;;;;;;;12.50;66.60;;;;;;5056372;28;19908;-75
2021/04/13 10:32:47;;;;;;;;;;;12.50;66.70;;;;;;5057567;28;19969;-75
2021/04/13 10:35:31;;;;;;;;;;;12.60;66.30;;;;;;5048408;28;19916;-75
2021/04/13 10:38:09;;;;;;;;;;;12.40;66.70;;;;;;5056558;28;19916;-75
2021/04/13 10:40:54;;;;;;;;;;;12.50;66.70;;;;;;5052172;28;19912;-75
2021/04/13 10:43:39;;;;;;;;;;;12.40;66.40;;;;;;5037611;28;19909;-75
2021/04/13 10:46:24;;;;;;;;;;;12.50;66.80;;;;;;5053468;28;19908;-75
2021/04/13 10:48:55;;;;;;;;;;;12.60;66.10;;;;;;5054628;28;19956;-75
2021/04/13 10:51:36;;;;;;;;;;;12.50;65.90;;;;;;5038085;28;19909;-76
2021/04/13 10:54:05;;;;;;;;;;;12.70;65.80;;;;;;5055886;28;19913;-74
2021/04/13 10:56:49;;;;;;;;;;;12.60;66.00;;;;;;5053430;28;20011;-75
2021/04/13 10:59:30;;;;;;;;;;;12.40;65.80;;;;;;5051935;28;20338;-75
2021/04/13 11:02:02;;;;;;;;;;;12.40;66.30;;;;;;5056449;28;19934;-75
2021/04/13 11:04:40;;;;;;;;;;;12.50;66.10;;;;;;5049236;28;20059;-75
2021/04/13 11:07:12;;;;;;;;;;;12.40;65.80;;;;;;5039982;28;19909;-75
2021/04/13 11:09:53;;;;;;;;;;;12.20;66.20;;;;;;5056107;28;19939;-75
2021/04/13 11:12:37;;;;;;;;;;;12.40;66.00;;;;;;5050282;28;19992;-75
2021/04/13 11:15:21;;;;;;;;;;;12.40;65.90;;;;;;5053733;28;19912;-75
2021/04/13 11:18:06;;;;;;;;;;;12.40;66.00;;;;;;5049370;28;20010;-75
2021/04/13 11:20:32;;;;;;;;;;;12.40;65.90;;;;;;5057838;28;19904;-76
2021/04/13 11:23:16;;;;;;;;;;;12.40;65.80;;;;;;5048706;28;19923;-75
2021/04/13 11:26:01;;;;;;;;;;;12.40;65.70;;;;;;5056246;28;19909;-75
2021/04/13 11:28:30;;;;;;;;;;;12.50;66.20;;;;;;5055902;28;19913;-76
2021/04/13 11:31:15;;;;;;;;;;;12.40;66.00;;;;;;5038838;28;19915;-76
2021/04/13 11:34:00;;;;;;;;;;;12.70;65.70;;;;;;5052828;28;19920;-75
2021/04/13 11:36:58;;;;;;;;;;;12.70;65.50;;;;;;5043619;28;20349;-75
2021/04/13 11:39:41;;;;;;;;;;;12.60;65.50;;;;;;5011883;28;19970;-75
2021/04/13 11:42:11;;;;;;;;;;;12.50;65.40;;;;;;5049256;28;19912;-75
2021/04/13 11:44:55;;;;;;;;;;;12.60;65.20;;;;;;5056906;28;19915;-75
2021/04/13 11:47:21;;;;;;;;;;;12.50;65.40;;;;;;5051142;28;19909;-76
2021/04/13 11:50:00;;;;;;;;;;;12.40;66.30;;;;;;5056283;28;19909;-75
2021/04/13 11:52:32;;;;;;;;;;;12.40;65.90;;;;;;5055876;28;19974;-75
2021/04/13 11:54:58;;;;;;;;;;;12.50;66.00;;;;;;5055261;28;19912;-75
2021/04/13 11:57:25;;;;;;;;;;;12.60;65.70;;;;;;5055739;28;19909;-75
2021/04/13 12:00:19;;;;;;;;;;;12.40;65.70;;;;;;5055939;28;19915;-76
2021/04/13 12:02:46;;;;;;;;;;;12.40;66.40;;;;;;5044288;28;19924;-76
2021/04/13 12:05:24;;;;;;;;;;;12.50;65.90;;;;;;5051086;28;20327;-75
2021/04/13 12:07:50;;;;;;;;;;;12.50;65.70;;;;;;5048063;28;19909;-77
2021/04/13 12:10:32;;;;;;;;;;;12.60;65.20;;;;;;5037787;28;20262;-77
2021/04/13 12:13:05;;;;;;;;;;;12.60;65.50;;;;;;5055557;28;19991;-78
2021/04/13 12:15:31;;;;;;;;;;;12.60;65.70;;;;;;5034854;28;19974;-75
2021/04/13 12:18:01;;;;;;;;;;;12.60;65.60;;;;;;5051343;28;20002;-75
2021/04/13 12:20:33;;;;;;;;;;;12.70;65.70;;;;;;5055714;28;19909;-76
2021/04/13 12:23:02;;;;;;;;;;;12.70;65.60;;;;;;5052442;28;19913;-74
2021/04/13 12:25:34;;;;;;;;;;;12.70;65.20;;;;;;5026146;28;19920;-76
2021/04/13 12:28:04;;;;;;;;;;;12.60;65.70;;;;;;5055874;28;19916;-76
2021/04/13 12:30:33;;;;;;;;;;;12.70;66.40;;;;;;5043286;28;19908;-76
2021/04/13 12:33:01;;;;;;;;;;;12.70;65.90;;;;;;5054149;28;19908;-76
2021/04/13 12:35:59;;;;;;;;;;;12.70;66.20;;;;;;5040619;28;19913;-76
2021/04/13 12:38:44;;;;;;;;;;;12.70;65.70;;;;;;5018671;28;20334;-76
2021/04/13 12:41:17;;;;;;;;;;;12.70;65.80;;;;;;5050275;28;19913;-76
2021/04/13 12:43:46;;;;;;;;;;;12.70;65.80;;;;;;5054382;28;19915;-75
2021/04/13 12:46:24;;;;;;;;;;;12.80;65.60;;;;;;5051575;28;19909;-76
2021/04/13 12:48:52;;;;;;;;;;;12.80;65.80;;;;;;5054372;28;19909;-76
2021/04/13 12:51:23;;;;;;;;;;;12.80;65.70;;;;;;5055922;28;19916;-77
2021/04/13 12:54:06;;;;;;;;;;;12.80;65.60;;;;;;5052857;28;19967;-76
2021/04/13 12:56:32;;;;;;;;;;;12.80;65.60;;;;;;5046173;28;19930;-75
2021/04/13 12:59:06;;;;;;;;;;;12.80;65.80;;;;;;5022794;28;19905;-76
2021/04/13 13:01:40;;;;;;;;;;;12.80;65.70;;;;;;5045336;28;20388;-74
2021/04/13 13:04:09;;;;;;;;;;;12.80;66.00;;;;;;5053996;28;19920;-75
2021/04/13 13:06:35;;;;;;;;;;;12.80;66.00;;;;;;5053277;28;19920;-77
2021/04/13 13:09:02;;;;;;;;;;;12.80;66.00;;;;;;5051660;28;19908;-74
2021/04/13 13:11:28;;;;;;;;;;;12.80;65.50;;;;;;5047674;28;19905;-75
2021/04/13 13:13:55;;;;;;;;;;;12.80;65.90;;;;;;5052289;28;20287;-76
2021/04/13 13:16:23;;;;;;;;;;;12.90;65.80;;;;;;5050830;28;19904;-74
2021/04/13 13:18:52;;;;;;;;;;;12.90;65.80;;;;;;5042909;28;19939;-74
2021/04/13 13:21:23;;;;;;;;;;;12.70;65.80;;;;;;5053587;28;19938;-74
2021/04/13 13:23:50;;;;;;;;;;;12.70;65.90;;;;;;5037413;28;20339;-75
2021/04/13 13:26:25;;;;;;;;;;;12.70;66.30;;;;;;5054742;28;20326;-74
2021/04/13 13:28:51;;;;;;;;;;;12.90;65.60;;;;;;5053884;28;19947;-74
2021/04/13 13:31:26;;;;;;;;;;;12.90;65.20;;;;;;5054370;28;20315;-74
2021/04/13 13:34:00;;;;;;;;;;;13.00;65.30;;;;;;5052522;28;19947;-75
2021/04/13 13:36:29;;;;;;;;;;;13.00;65.20;;;;;;5054310;28;19920;-76
2021/04/13 13:38:55;;;;;;;;;;;13.10;65.20;;;;;;5051281;28;19913;-76
2021/04/13 13:41:22;;;;;;;;;;;13.00;65.00;;;;;;5054027;28;19916;-75
2021/04/13 13:43:48;;;;;;;;;;;13.00;65.20;;;;;;5054441;28;19935;-76
2021/04/13 13:46:26;;;;;;;;;;;13.00;65.20;;;;;;5049741;28;20408;-76
2021/04/13 13:48:52;;;;;;;;;;;13.00;65.10;;;;;;5049075;28;19919;-76
2021/04/13 13:51:24;;;;;;;;;;;12.90;65.30;;;;;;5053658;28;20342;-75
2021/04/13 13:53:51;;;;;;;;;;;12.90;65.30;;;;;;5050918;28;19970;-76
2021/04/13 13:56:26;;;;;;;;;;;12.80;65.60;;;;;;5050687;28;19919;-76
2021/04/13 13:59:12;;;;;;;;;;;13.00;65.70;;;;;;5051605;28;19999;-76
2021/04/13 14:01:39;;;;;;;;;;;12.90;65.60;;;;;;5047158;28;19996;-75
2021/04/13 14:04:05;;;;;;;;;;;12.80;65.80;;;;;;5047260;28;19912;-76
2021/04/13 14:06:31;;;;;;;;;;;13.00;65.60;;;;;;5041333;28;19962;-76
2021/04/13 14:09:14;;;;;;;;;;;13.00;65.30;;;;;;5053902;28;19951;-76
2021/04/13 14:11:40;;;;;;;;;;;13.00;65.40;;;;;;5035542;28;19905;-76
2021/04/13 14:14:10;;;;;;;;;;;13.10;65.00;;;;;;5041449;28;19944;-76
2021/04/13 14:16:41;;;;;;;;;;;13.20;65.10;;;;;;5052083;28;19948;-75
2021/04/13 14:19:18;;;;;;;;;;;13.20;65.20;;;;;;5050525;28;19931;-76
2021/04/13 14:21:45;;;;;;;;;;;13.10;65.30;;;;;;5038729;28;19987;-76
2021/04/13 14:24:18;;;;;;;;;;;13.10;65.50;;;;;;5047953;28;19909;-76
2021/04/13 14:26:46;;;;;;;;;;;13.20;65.30;;;;;;5050666;28;19917;-77
2021/04/13 14:29:18;;;;;;;;;;;13.20;65.30;;;;;;5052745;28;19977;-76
2021/04/13 14:31:46;;;;;;;;;;;13.10;65.30;;;;;;5043481;28;19924;-76
2021/04/13 14:34:12;;;;;;;;;;;13.10;65.50;;;;;;5038570;28;19909;-76
2021/04/13 14:36:38;;;;;;;;;;;13.10;65.30;;;;;;5035091;28;19912;-76
2021/04/13 14:39:06;;;;;;;;;;;13.20;65.00;;;;;;5052940;28;20024;-76
2021/04/13 14:41:32;;;;;;;;;;;13.10;65.30;;;;;;5046215;28;20354;-76
2021/04/13 14:43:58;;;;;;;;;;;13.20;65.10;;;;;;5046753;28;19923;-76
2021/04/13 14:46:24;;;;;;;;;;;13.30;64.60;;;;;;5038382;28;20001;-76
2021/04/13 14:48:50;;;;;;;;;;;13.30;64.50;;;;;;5055576;28;19927;-75